Terminal Aerodrome Forecast
Issued by NWS

Home | Current Version | Previous Version | Text Only | Print | Product List | Glossary On
Versions: 1 2 3 4 5 6 7 8 9 10 11 12 13 14 15 16 17
000
FTUS43 KDLH 011100
TAFHIB
TAF
KHIB 011130Z 0112/0212 16006KT P6SM VCSH SCT050 OVC080
      TEMPO 0113/0115 6SM -RA SCT020 OVC040
     FM011600 VRB05KT P6SM SCT060
     FM020600 17007KT P6SM SKC=

USA.gov is the U.S. government's official web portal to all federal, state and local government web resources and services.